Time;durP1;ratioP1;P1;durP2;ratioP2;P2;SDS_P1;SDS_P2;PMS_P1;PMS_P2;Temp;Humidity;BMP_temperature;BMP_pressure;BME280_temperature;BME280_humidity;BME280_pressure;Samples;Min_cycle;Max_cycle;Signal;HPM_P1;HPM_P2
2022/04/01 00:01:22;;;;;;;7.75;2.30;;;;;;;;;;4977836;28;20050;-66
2022/04/01 00:03:48;;;;;;;2.53;1.90;;;;;;;;;;4972890;28;20046;-66
2022/04/01 00:06:14;;;;;;;3.45;2.10;;;;;;;;;;4995667;28;20081;-66
2022/04/01 00:08:40;;;;;;;2.55;1.90;;;;;;;;;;4971967;28;20066;-66
2022/04/01 00:11:06;;;;;;;3.50;1.98;;;;;;;;;;4990093;28;20042;-66
2022/04/01 00:13:32;;;;;;;5.68;2.10;;;;;;;;;;4991423;28;20092;-66
2022/04/01 00:15:59;;;;;;;5.07;2.17;;;;;;;;;;4991948;28;20046;-66
2022/04/01 00:18:25;;;;;;;6.13;1.90;;;;;;;;;;4979515;28;20046;-66
2022/04/01 00:20:52;;;;;;;5.18;2.10;;;;;;;;;;4987672;28;20047;-66
2022/04/01 00:23:18;;;;;;;4.63;1.80;;;;;;;;;;5004514;28;20453;-66
2022/04/01 00:25:45;;;;;;;4.68;1.80;;;;;;;;;;4976986;28;20035;-66
2022/04/01 00:28:11;;;;;;;3.65;1.95;;;;;;;;;;4990996;28;20620;-66
2022/04/01 00:30:39;;;;;;;2.45;1.83;;;;;;;;;;4977908;28;20125;-66
2022/04/01 00:33:08;;;;;;;5.50;2.08;;;;;;;;;;4972014;28;20051;-66
2022/04/01 00:35:37;;;;;;;6.50;1.90;;;;;;;;;;4987862;28;20130;-66
2022/04/01 00:38:03;;;;;;;3.15;1.73;;;;;;;;;;4993296;28;20515;-66
2022/04/01 00:40:30;;;;;;;4.55;1.67;;;;;;;;;;4971774;28;20069;-66
2022/04/01 00:42:56;;;;;;;5.25;1.85;;;;;;;;;;4970959;28;20038;-66
2022/04/01 00:45:22;;;;;;;2.95;1.90;;;;;;;;;;4973379;28;20548;-66
2022/04/01 00:47:48;;;;;;;3.53;1.52;;;;;;;;;;4971928;28;20047;-66
2022/04/01 00:50:14;;;;;;;3.20;1.75;;;;;;;;;;4970858;28;20055;-66
2022/04/01 00:52:42;;;;;;;3.25;1.73;;;;;;;;;;4988025;28;20050;-66
2022/04/01 00:55:09;;;;;;;4.68;2.13;;;;;;;;;;4971791;28;20489;-66
2022/04/01 00:57:36;;;;;;;3.70;1.58;;;;;;;;;;4972069;28;20043;-66
2022/04/01 01:00:03;;;;;;;4.72;1.95;;;;;;;;;;4972803;28;20046;-66
2022/04/01 01:02:29;;;;;;;3.40;1.48;;;;;;;;;;4972864;28;20501;-66
2022/04/01 01:04:56;;;;;;;3.53;1.50;;;;;;;;;;4973125;28;20045;-66
2022/04/01 01:07:22;;;;;;;4.53;1.60;;;;;;;;;;4971422;28;20501;-66
2022/04/01 01:09:50;;;;;;;4.72;1.92;;;;;;;;;;4974129;28;20050;-66
2022/04/01 01:12:17;;;;;;;5.35;2.00;;;;;;;;;;5004049;28;20062;-66
2022/04/01 01:14:44;;;;;;;3.53;1.80;;;;;;;;;;4983887;28;20481;-66
2022/04/01 01:17:12;;;;;;;3.38;1.77;;;;;;;;;;4990339;28;20050;-66
2022/04/01 01:19:39;;;;;;;6.15;1.88;;;;;;;;;;4971441;28;20044;-66
2022/04/01 01:22:06;;;;;;;2.90;1.73;;;;;;;;;;4970952;28;20051;-66
2022/04/01 01:24:32;;;;;;;6.05;2.10;;;;;;;;;;4971411;28;20066;-66
2022/04/01 01:26:59;;;;;;;2.95;1.90;;;;;;;;;;4987134;28;20516;-66
2022/04/01 01:29:26;;;;;;;5.30;1.95;;;;;;;;;;4988335;28;20038;-66
2022/04/01 01:31:54;;;;;;;2.78;1.80;;;;;;;;;;4971288;28;20063;-66
2022/04/01 01:34:20;;;;;;;4.38;1.67;;;;;;;;;;4971435;28;20051;-66
2022/04/01 01:36:47;;;;;;;4.40;1.80;;;;;;;;;;4970681;28;20509;-66
2022/04/01 01:39:13;;;;;;;3.55;1.80;;;;;;;;;;5000392;28;20034;-66
2022/04/01 01:41:39;;;;;;;2.78;2.05;;;;;;;;;;5003520;28;20110;-66
2022/04/01 01:44:05;;;;;;;3.72;2.05;;;;;;;;;;4970345;28;20061;-66
2022/04/01 01:46:31;;;;;;;3.50;2.00;;;;;;;;;;5003535;28;20046;-66
2022/04/01 01:48:57;;;;;;;5.05;1.77;;;;;;;;;;4971506;28;20053;-66
2022/04/01 01:56:53;;;;;;;4.18;1.92;;;;;;;;;;4970245;28;20070;-66
2022/04/01 01:59:19;;;;;;;3.47;1.85;;;;;;;;;;4983057;28;20404;-66
2022/04/01 02:01:45;;;;;;;2.58;1.88;;;;;;;;;;5003084;28;20564;-66
2022/04/01 02:04:11;;;;;;;2.40;1.63;;;;;;;;;;4971840;28;20082;-66
2022/04/01 02:06:38;;;;;;;5.75;2.15;;;;;;;;;;4970713;28;20043;-66
2022/04/01 02:09:04;;;;;;;4.20;1.90;;;;;;;;;;4987135;28;20478;-66
2022/04/01 02:11:30;;;;;;;2.88;1.70;;;;;;;;;;5001088;28;20051;-66
2022/04/01 02:13:57;;;;;;;3.90;1.52;;;;;;;;;;4970559;28;20043;-66
2022/04/01 02:16:23;;;;;;;3.10;1.98;;;;;;;;;;4971980;28;20043;-66
2022/04/01 02:18:49;;;;;;;2.00;1.60;;;;;;;;;;4995595;28;20508;-66
2022/04/01 02:21:16;;;;;;;5.85;2.00;;;;;;;;;;4969959;28;20050;-66
2022/04/01 02:23:44;;;;;;;2.85;1.80;;;;;;;;;;4970741;28;20390;-66
2022/04/01 02:26:10;;;;;;;2.88;1.73;;;;;;;;;;4972325;28;20049;-66
2022/04/01 02:28:37;;;;;;;4.75;1.90;;;;;;;;;;4986391;28;20700;-66
2022/04/01 02:31:04;;;;;;;6.72;1.90;;;;;;;;;;4971959;28;20066;-66
2022/04/01 02:33:31;;;;;;;4.80;2.17;;;;;;;;;;4974109;28;20074;-66
2022/04/01 02:35:57;;;;;;;3.90;2.20;;;;;;;;;;4974042;28;20053;-66
2022/04/01 02:38:27;;;;;;;5.75;1.90;;;;;;;;;;4994916;28;20432;-66
2022/04/01 02:40:54;;;;;;;7.32;2.17;;;;;;;;;;4974650;28;20046;-66
2022/04/01 02:43:20;;;;;;;3.47;1.80;;;;;;;;;;4988490;28;20077;-66
2022/04/01 02:45:50;;;;;;;4.70;2.22;;;;;;;;;;4990785;28;20440;-66
2022/04/01 02:48:16;;;;;;;4.93;1.90;;;;;;;;;;5008664;28;20384;-66
2022/04/01 02:50:43;;;;;;;4.55;2.15;;;;;;;;;;4982619;28;20413;-66
2022/04/01 02:53:10;;;;;;;4.03;1.85;;;;;;;;;;4989943;28;20069;-66
2022/04/01 02:55:36;;;;;;;2.42;1.63;;;;;;;;;;5003957;28;20046;-66
2022/04/01 02:58:02;;;;;;;3.22;2.00;;;;;;;;;;4972986;28;20096;-66
2022/04/01 03:00:28;;;;;;;2.20;1.70;;;;;;;;;;4990165;28;20047;-66
2022/04/01 03:02:54;;;;;;;3.42;1.75;;;;;;;;;;4973564;28;20038;-66
2022/04/01 03:05:21;;;;;;;2.63;1.77;;;;;;;;;;4974459;28;20417;-66
2022/04/01 03:07:47;;;;;;;5.93;2.08;;;;;;;;;;4973403;28;20051;-66
2022/04/01 03:10:13;;;;;;;3.53;2.03;;;;;;;;;;4973771;28;20489;-66
2022/04/01 03:12:39;;;;;;;2.53;1.80;;;;;;;;;;4988982;28;20141;-66
2022/04/01 03:15:06;;;;;;;3.58;1.50;;;;;;;;;;4998994;28;20082;-66
2022/04/01 03:17:33;;;;;;;6.50;1.67;;;;;;;;;;5006192;28;20054;-66
2022/04/01 03:20:01;;;;;;;3.13;1.70;;;;;;;;;;4974234;28;20490;-66
2022/04/01 03:22:27;;;;;;;3.95;1.60;;;;;;;;;;4957155;28;20401;-66
2022/04/01 03:24:53;;;;;;;5.50;1.77;;;;;;;;;;4989748;28;20034;-66
2022/04/01 03:27:19;;;;;;;2.88;1.70;;;;;;;;;;5003124;28;20481;-66
2022/04/01 03:29:45;;;;;;;6.72;2.22;;;;;;;;;;4973207;28;20054;-66
2022/04/01 03:32:11;;;;;;;2.22;1.63;;;;;;;;;;4989392;28;20042;-66
2022/04/01 03:34:38;;;;;;;2.95;1.95;;;;;;;;;;4993466;28;20118;-66
2022/04/01 03:37:05;;;;;;;3.33;1.48;;;;;;;;;;5005603;28;20508;-66
2022/04/01 03:39:32;;;;;;;3.33;1.45;;;;;;;;;;5008909;28;20394;-66
2022/04/01 03:42:01;;;;;;;3.55;1.52;;;;;;;;;;4988274;28;20039;-66
2022/04/01 03:44:28;;;;;;;4.45;1.85;;;;;;;;;;4991007;28;20054;-66
2022/04/01 03:47:06;;;;;;;3.70;1.50;;;;;;;;;;4982455;28;20047;-66
2022/04/01 03:49:33;;;;;;;4.10;1.98;;;;;;;;;;4988587;28;20049;-66
2022/04/01 03:52:00;;;;;;;3.03;1.70;;;;;;;;;;5004519;28;20046;-66
2022/04/01 03:54:27;;;;;;;2.38;1.60;;;;;;;;;;5005047;28;20594;-66
2022/04/01 03:57:00;;;;;;;3.45;1.92;;;;;;;;;;4972253;28;20039;-66
2022/04/01 03:59:40;;;;;;;4.25;1.85;;;;;;;;;;5005327;28;20108;-66
2022/04/01 04:02:10;;;;;;;4.13;1.42;;;;;;;;;;4973864;28;20094;-66
2022/04/01 04:04:37;;;;;;;3.42;1.50;;;;;;;;;;4973256;28;20055;-66
2022/04/01 04:07:05;;;;;;;3.15;1.77;;;;;;;;;;4972221;28;20066;-66
2022/04/01 04:09:31;;;;;;;2.85;1.50;;;;;;;;;;4972988;28;20050;-66
2022/04/01 04:11:59;;;;;;;4.38;1.60;;;;;;;;;;5002878;28;20457;-66
2022/04/01 04:14:27;;;;;;;2.20;1.58;;;;;;;;;;5004759;28;20047;-66
2022/04/01 04:16:56;;;;;;;5.35;1.50;;;;;;;;;;5005202;28;20046;-66
2022/04/01 04:19:33;;;;;;;2.95;2.03;;;;;;;;;;4975875;28;20397;-66
2022/04/01 04:22:05;;;;;;;4.63;1.83;;;;;;;;;;4972439;28;20046;-66
2022/04/01 04:24:33;;;;;;;2.03;1.48;;;;;;;;;;4991049;28;20844;-66
2022/04/01 04:27:05;;;;;;;2.17;1.70;;;;;;;;;;4976411;28;20043;-66
2022/04/01 04:29:34;;;;;;;3.17;1.55;;;;;;;;;;4988600;28;20051;-66
2022/04/01 04:32:01;;;;;;;2.50;1.50;;;;;;;;;;5002701;28;20519;-66
2022/04/01 04:34:30;;;;;;;3.10;1.65;;;;;;;;;;4972284;28;20058;-66
2022/04/01 04:36:57;;;;;;;3.92;1.70;;;;;;;;;;4988087;28;20081;-66
2022/04/01 04:39:29;;;;;;;2.67;1.60;;;;;;;;;;4997256;28;20030;-66
2022/04/01 04:41:56;;;;;;;5.45;1.80;;;;;;;;;;4987332;28;20039;-67
2022/04/01 04:44:29;;;;;;;3.00;1.77;;;;;;;;;;4987756;28;20105;-66
2022/04/01 04:47:02;;;;;;;4.80;1.75;;;;;;;;;;4971398;28;20039;-66
2022/04/01 04:49:29;;;;;;;2.55;1.40;;;;;;;;;;4988149;28;20045;-66
2022/04/01 04:51:56;;;;;;;2.55;1.55;;;;;;;;;;5001351;28;20692;-66
2022/04/01 04:54:24;;;;;;;4.10;1.50;;;;;;;;;;4971006;28;20039;-66
2022/04/01 04:56:50;;;;;;;5.53;1.60;;;;;;;;;;4971801;28;20043;-66
2022/04/01 04:59:20;;;;;;;3.53;1.27;;;;;;;;;;4995765;28;20050;-66
2022/04/01 05:01:55;;;;;;;5.43;2.20;;;;;;;;;;5003482;28;20051;-66
2022/04/01 05:04:25;;;;;;;1.65;1.10;;;;;;;;;;4972406;28;20042;-66
2022/04/01 05:07:10;;;;;;;4.43;1.70;;;;;;;;;;4971272;28;20043;-66
2022/04/01 05:09:46;;;;;;;3.05;1.38;;;;;;;;;;4970841;28;20046;-66
2022/04/01 05:12:23;;;;;;;2.70;1.23;;;;;;;;;;5002546;28;20035;-66
2022/04/01 05:15:02;;;;;;;3.45;1.02;;;;;;;;;;4977537;28;20047;-66
2022/04/01 05:17:35;;;;;;;1.73;1.40;;;;;;;;;;4991507;28;20584;-66
2022/04/01 05:20:04;;;;;;;3.22;1.33;;;;;;;;;;4974585;28;20057;-66
2022/04/01 05:22:37;;;;;;;4.68;1.40;;;;;;;;;;4988108;28;20421;-66
2022/04/01 05:25:04;;;;;;;4.90;1.38;;;;;;;;;;5003114;28;20074;-66
2022/04/01 05:27:31;;;;;;;5.38;1.40;;;;;;;;;;4977836;28;20096;-66
2022/04/01 05:30:04;;;;;;;2.90;1.27;;;;;;;;;;4971651;28;20489;-66
2022/04/01 05:32:33;;;;;;;5.25;1.20;;;;;;;;;;4970753;28;20371;-66
2022/04/01 05:35:00;;;;;;;3.95;1.65;;;;;;;;;;4978235;28;20526;-66
2022/04/01 05:37:29;;;;;;;2.78;1.13;;;;;;;;;;4990689;28;20047;-66
2022/04/01 05:39:55;;;;;;;2.90;1.17;;;;;;;;;;4975391;28;20118;-66
2022/04/01 05:42:22;;;;;;;5.07;1.48;;;;;;;;;;4970571;28;20082;-66
2022/04/01 05:44:49;;;;;;;2.85;0.93;;;;;;;;;;4987125;28;20513;-66
2022/04/01 05:47:16;;;;;;;6.55;1.30;;;;;;;;;;4992527;28;20641;-66
2022/04/01 05:49:44;;;;;;;4.40;1.13;;;;;;;;;;4971340;28;20102;-66
2022/04/01 05:52:11;;;;;;;3.72;1.25;;;;;;;;;;4971160;28;20639;-66
2022/04/01 05:54:39;;;;;;;2.95;1.05;;;;;;;;;;4987425;28;20580;-66
2022/04/01 05:57:08;;;;;;;4.00;1.10;;;;;;;;;;4970920;28;20046;-66
2022/04/01 05:59:34;;;;;;;2.88;1.20;;;;;;;;;;4987102;28;20038;-65
2022/04/01 06:02:09;;;;;;;5.15;1.40;;;;;;;;;;4986572;28;20048;-65
2022/04/01 06:04:54;;;;;;;1.23;0.80;;;;;;;;;;4981467;28;20047;-67
2022/04/01 06:07:32;;;;;;;3.80;1.10;;;;;;;;;;4982974;28;20180;-66
2022/04/01 06:10:11;;;;;;;5.38;1.33;;;;;;;;;;4994866;28;20133;-67
2022/04/01 06:12:55;;;;;;;4.80;1.60;;;;;;;;;;4974399;28;20046;-66
2022/04/01 06:15:33;;;;;;;6.93;1.50;;;;;;;;;;4958699;28;20164;-67
2022/04/01 06:17:59;;;;;;;3.65;1.50;;;;;;;;;;4973839;28;20047;-66
2022/04/01 06:20:26;;;;;;;3.15;1.30;;;;;;;;;;4991532;28;20404;-66
2022/04/01 06:23:21;;;;;;;4.85;1.20;;;;;;;;;;4994441;28;20034;-66
2022/04/01 06:25:54;;;;;;;3.00;1.25;;;;;;;;;;4987796;28;20042;-66
2022/04/01 06:28:25;;;;;;;5.95;1.30;;;;;;;;;;4990570;28;20050;-68
2022/04/01 06:30:54;;;;;;;3.15;1.27;;;;;;;;;;4994760;28;20075;-67
2022/04/01 06:33:32;;;;;;;3.05;1.10;;;;;;;;;;4962606;28;20046;-66
2022/04/01 06:36:03;;;;;;;4.22;0.90;;;;;;;;;;4988976;28;20077;-64
2022/04/01 06:38:39;;;;;;;3.07;1.30;;;;;;;;;;4992708;28;20049;-65
2022/04/01 06:41:23;;;;;;;2.33;1.02;;;;;;;;;;4984964;28;20043;-66
2022/04/01 06:43:49;;;;;;;2.03;1.30;;;;;;;;;;4981209;28;20089;-66
2022/04/01 06:46:16;;;;;;;5.70;1.50;;;;;;;;;;4984670;28;20043;-67
2022/04/01 06:48:42;;;;;;;4.63;1.40;;;;;;;;;;4973838;28;20406;-66
2022/04/01 06:51:09;;;;;;;7.30;0.90;;;;;;;;;;4986917;28;20412;-68
2022/04/01 06:53:36;;;;;;;3.85;1.13;;;;;;;;;;5007340;28;20590;-65
2022/04/01 06:56:03;;;;;;;2.80;1.20;;;;;;;;;;4987980;28;20050;-65
2022/04/01 06:58:30;;;;;;;1.73;1.25;;;;;;;;;;4985099;28;20049;-66
2022/04/01 07:00:56;;;;;;;3.05;1.33;;;;;;;;;;4992248;28;20418;-66
2022/04/01 07:03:23;;;;;;;1.55;1.05;;;;;;;;;;4983319;28;20048;-67
2022/04/01 07:05:51;;;;;;;1.75;1.00;;;;;;;;;;4989090;28;20189;-67
2022/04/01 07:08:17;;;;;;;3.70;1.10;;;;;;;;;;4987945;28;20693;-64
2022/04/01 07:10:45;;;;;;;5.05;1.20;;;;;;;;;;4984138;28;20097;-67
2022/04/01 07:13:11;;;;;;;5.53;1.13;;;;;;;;;;4993962;28;20104;-66
2022/04/01 07:15:37;;;;;;;2.80;1.25;;;;;;;;;;4991499;28;20126;-65
2022/04/01 07:18:04;;;;;;;7.45;1.23;;;;;;;;;;4986976;28;20129;-64
2022/04/01 07:20:30;;;;;;;6.38;1.60;;;;;;;;;;4972508;28;20109;-65
2022/04/01 07:22:56;;;;;;;3.22;1.50;;;;;;;;;;4971945;28;20458;-66
2022/04/01 07:25:23;;;;;;;2.75;1.10;;;;;;;;;;4990860;28;20859;-63
2022/04/01 07:27:50;;;;;;;2.65;1.35;;;;;;;;;;4991906;28;20050;-67
2022/04/01 07:30:16;;;;;;;1.92;0.88;;;;;;;;;;4985544;28;20049;-68
2022/04/01 07:32:43;;;;;;;2.80;1.33;;;;;;;;;;5003958;28;20058;-68
2022/04/01 07:35:11;;;;;;;2.85;1.23;;;;;;;;;;4976970;28;20054;-67
2022/04/01 07:37:37;;;;;;;2.42;1.40;;;;;;;;;;4971647;28;20054;-66
2022/04/01 07:40:05;;;;;;;2.17;1.33;;;;;;;;;;4996398;28;20085;-67
2022/04/01 07:42:31;;;;;;;1.50;1.38;;;;;;;;;;4991585;28;20125;-67
2022/04/01 07:44:57;;;;;;;6.32;1.40;;;;;;;;;;4991049;28;20058;-68
2022/04/01 07:47:24;;;;;;;2.10;1.35;;;;;;;;;;4992162;28;20105;-67
2022/04/01 07:49:50;;;;;;;5.57;1.45;;;;;;;;;;4988463;28;20050;-66
2022/04/01 07:52:17;;;;;;;4.57;1.52;;;;;;;;;;4985305;28;20054;-66
2022/04/01 07:54:44;;;;;;;3.20;1.27;;;;;;;;;;4982935;28;20129;-66
2022/04/01 07:57:12;;;;;;;3.05;1.10;;;;;;;;;;4992894;28;20129;-67
2022/04/01 07:59:38;;;;;;;4.07;1.50;;;;;;;;;;4982895;28;20078;-68
2022/04/01 08:02:05;;;;;;;3.65;1.60;;;;;;;;;;4993089;28;20042;-68
2022/04/01 08:04:31;;;;;;;4.70;1.73;;;;;;;;;;4997622;28;20079;-67
2022/04/01 08:06:58;;;;;;;5.72;1.33;;;;;;;;;;4985774;28;20429;-67
2022/04/01 08:09:24;;;;;;;2.95;1.50;;;;;;;;;;5004654;28;20042;-67
2022/04/01 08:11:51;;;;;;;2.05;1.60;;;;;;;;;;4983360;28;20104;-67
2022/04/01 08:14:17;;;;;;;4.30;1.77;;;;;;;;;;4990959;28;20038;-68
2022/04/01 08:16:44;;;;;;;4.25;2.00;;;;;;;;;;5003829;28;20129;-68
2022/04/01 08:19:10;;;;;;;3.17;1.73;;;;;;;;;;4985954;28;20081;-68
2022/04/01 08:21:36;;;;;;;4.10;2.17;;;;;;;;;;4973277;28;20031;-67
2022/04/01 08:24:03;;;;;;;5.68;2.10;;;;;;;;;;4992143;28;20358;-69
2022/04/01 08:26:29;;;;;;;5.03;2.20;;;;;;;;;;4981784;28;20058;-69
2022/04/01 08:28:55;;;;;;;6.50;2.22;;;;;;;;;;4988631;28;20052;-68
2022/04/01 08:31:21;;;;;;;5.22;2.38;;;;;;;;;;4991051;28;20077;-67
2022/04/01 08:33:48;;;;;;;6.38;2.70;;;;;;;;;;5004918;28;20038;-67
2022/04/01 08:36:14;;;;;;;4.18;2.38;;;;;;;;;;4972030;28;20078;-66
2022/04/01 08:38:41;;;;;;;4.75;2.63;;;;;;;;;;4971542;28;20043;-67
2022/04/01 08:41:07;;;;;;;5.00;2.90;;;;;;;;;;4990610;28;20096;-64
2022/04/01 08:43:34;;;;;;;5.20;3.35;;;;;;;;;;4982970;28;20054;-65
2022/04/01 08:46:02;;;;;;;6.00;3.50;;;;;;;;;;4988319;28;20637;-67
2022/04/01 08:48:29;;;;;;;4.47;3.10;;;;;;;;;;4985987;28;20042;-66
2022/04/01 08:50:55;;;;;;;7.07;3.50;;;;;;;;;;4983347;28;20054;-66
2022/04/01 08:53:21;;;;;;;4.78;3.20;;;;;;;;;;4991527;28;20042;-66
2022/04/01 08:55:48;;;;;;;8.30;3.70;;;;;;;;;;4991282;28;20170;-67
2022/04/01 08:58:17;;;;;;;7.40;3.78;;;;;;;;;;4991651;28;20552;-67
2022/04/01 09:00:44;;;;;;;6.25;3.90;;;;;;;;;;4989777;28;20092;-66
2022/04/01 09:03:11;;;;;;;5.22;4.10;;;;;;;;;;4986820;28;20469;-67
2022/04/01 09:05:38;;;;;;;8.35;4.10;;;;;;;;;;4971596;28;20046;-66
2022/04/01 09:08:06;;;;;;;5.65;4.25;;;;;;;;;;4961950;28;20053;-68
2022/04/01 09:10:49;;;;;;;7.65;4.72;;;;;;;;;;4961568;28;20042;-67
2022/04/01 09:13:15;;;;;;;6.10;3.85;;;;;;;;;;4990453;28;20052;-67
2022/04/01 09:15:42;;;;;;;8.18;4.50;;;;;;;;;;4987820;28;20077;-69
2022/04/01 09:18:09;;;;;;;8.45;4.38;;;;;;;;;;4989702;28;20054;-69
2022/04/01 09:20:51;;;;;;;5.43;4.15;;;;;;;;;;4988483;28;20044;-69
2022/04/01 09:23:23;;;;;;;7.13;4.28;;;;;;;;;;4981800;28;20141;-66
2022/04/01 09:25:51;;;;;;;10.18;4.65;;;;;;;;;;4986925;28;20043;-68
2022/04/01 09:28:32;;;;;;;6.85;4.57;;;;;;;;;;4988819;28;20559;-67
2022/04/01 09:31:06;;;;;;;6.68;3.85;;;;;;;;;;4980824;28;20398;-67
2022/04/01 09:33:47;;;;;;;7.50;4.72;;;;;;;;;;4990283;28;20081;-67
2022/04/01 09:36:19;;;;;;;7.18;4.68;;;;;;;;;;4992975;28;20057;-67
2022/04/01 09:38:55;;;;;;;8.48;4.65;;;;;;;;;;4993448;28;20078;-66
2022/04/01 09:41:21;;;;;;;8.13;4.32;;;;;;;;;;5005912;28;20042;-67
2022/04/01 09:43:47;;;;;;;7.93;4.88;;;;;;;;;;4973212;28;20047;-67
2022/04/01 09:46:27;;;;;;;6.00;4.32;;;;;;;;;;4975831;28;20054;-68
2022/04/01 09:48:57;;;;;;;8.88;4.97;;;;;;;;;;4973478;28;20057;-68
2022/04/01 09:51:24;;;;;;;7.88;4.80;;;;;;;;;;4975104;28;20093;-66
2022/04/01 09:53:53;;;;;;;8.43;5.10;;;;;;;;;;4976117;28;20094;-67
2022/04/01 09:56:35;;;;;;;9.25;5.22;;;;;;;;;;4985985;28;20054;-68
2022/04/01 09:59:01;;;;;;;7.95;5.28;;;;;;;;;;4977398;28;20129;-67
2022/04/01 10:01:27;;;;;;;6.53;4.90;;;;;;;;;;4983924;28;20038;-68
2022/04/01 10:03:53;;;;;;;13.45;6.45;;;;;;;;;;4984276;28;20436;-66
2022/04/01 10:06:19;;;;;;;9.82;5.78;;;;;;;;;;4977812;28;20063;-69
2022/04/01 10:08:45;;;;;;;10.27;5.20;;;;;;;;;;4985729;28;20050;-68
2022/04/01 10:11:11;;;;;;;8.90;5.32;;;;;;;;;;4975691;28;20057;-68
2022/04/01 10:13:38;;;;;;;10.57;5.22;;;;;;;;;;4994192;28;20112;-69
2022/04/01 10:16:09;;;;;;;7.88;4.90;;;;;;;;;;4982832;28;20480;-67
2022/04/01 10:18:35;;;;;;;7.03;4.72;;;;;;;;;;4995173;28;20409;-68
2022/04/01 10:21:03;;;;;;;9.93;5.00;;;;;;;;;;4976876;28;20045;-67
2022/04/01 10:23:30;;;;;;;6.18;4.50;;;;;;;;;;4985701;28;20408;-68
2022/04/01 10:26:02;;;;;;;6.63;4.40;;;;;;;;;;4988316;28;20073;-67
2022/04/01 10:28:28;;;;;;;;;;;;;;;;;;4983965;28;20447;-67
2022/04/01 10:30:55;;;;;;;11.40;5.00;;;;;;;;;;4981511;28;19922;-66
2022/04/01 10:33:27;;;;;;;7.45;5.00;;;;;;;;;;4985689;28;20050;-67
2022/04/01 10:35:55;;;;;;;8.57;4.57;;;;;;;;;;4978727;28;20049;-68
2022/04/01 10:38:24;;;;;;;9.00;4.82;;;;;;;;;;4978041;28;20046;-68
2022/04/01 10:40:51;;;;;;;8.88;4.32;;;;;;;;;;4977754;28;20061;-69
2022/04/01 10:43:20;;;;;;;7.88;4.00;;;;;;;;;;4992404;28;20046;-69
2022/04/01 10:46:01;;;;;;;6.75;3.65;;;;;;;;;;4973121;28;20105;-69
2022/04/01 10:54:01;;;;;;;4.97;2.70;;;;;;;;;;4982233;28;20496;-67
2022/04/01 10:56:31;;;;;;;2.75;2.38;;;;;;;;;;4973413;28;20046;-67
2022/04/01 10:59:12;;;;;;;4.70;2.60;;;;;;;;;;4974219;28;20053;-67
2022/04/01 11:01:53;;;;;;;5.00;2.60;;;;;;;;;;4972943;28;20101;-67
2022/04/01 11:04:20;;;;;;;4.15;2.33;;;;;;;;;;4974788;28;20134;-69
2022/04/01 11:07:01;;;;;;;4.35;2.40;;;;;;;;;;4973819;28;20070;-69
2022/04/01 11:09:33;;;;;;;4.72;2.13;;;;;;;;;;4975694;28;20034;-69
2022/04/01 11:12:18;;;;;;;4.75;2.00;;;;;;;;;;4993833;28;20047;-68
2022/04/01 11:14:59;;;;;;;3.25;1.85;;;;;;;;;;4974913;28;20038;-70
2022/04/01 11:17:29;;;;;;;3.17;2.28;;;;;;;;;;4974018;28;20529;-68
2022/04/01 11:20:02;;;;;;;2.78;2.00;;;;;;;;;;4979660;28;20078;-69
2022/04/01 11:22:34;;;;;;;3.47;1.90;;;;;;;;;;4978590;28;20155;-67
2022/04/01 11:25:01;;;;;;;3.10;2.33;;;;;;;;;;4973822;28;20061;-68
2022/04/01 11:27:27;;;;;;;2.97;2.13;;;;;;;;;;4989622;28;20085;-66
2022/04/01 11:30:06;;;;;;;2.90;2.20;;;;;;;;;;4974285;28;20043;-68
2022/04/01 11:32:35;;;;;;;2.55;2.03;;;;;;;;;;4973987;28;20046;-67
2022/04/01 11:35:01;;;;;;;5.63;2.42;;;;;;;;;;4973557;28;20049;-67
2022/04/01 11:37:27;;;;;;;4.30;2.25;;;;;;;;;;4973199;28;20500;-66
2022/04/01 11:39:53;;;;;;;4.40;2.45;;;;;;;;;;4972799;28;20050;-69
2022/04/01 11:42:20;;;;;;;2.90;2.20;;;;;;;;;;4975641;28;20053;-66
2022/04/01 11:44:54;;;;;;;2.90;1.95;;;;;;;;;;4991730;28;20378;-68
2022/04/01 11:47:34;;;;;;;3.03;1.92;;;;;;;;;;4973854;28;20043;-67
2022/04/01 11:50:10;;;;;;;3.65;1.70;;;;;;;;;;4973576;28;20047;-68
2022/04/01 11:52:38;;;;;;;2.67;1.83;;;;;;;;;;4974078;28;20389;-68
2022/04/01 11:55:10;;;;;;;4.25;1.77;;;;;;;;;;4973839;28;20114;-69
2022/04/01 11:57:37;;;;;;;4.55;1.90;;;;;;;;;;5006138;28;20104;-68
2022/04/01 12:00:09;;;;;;;4.35;1.40;;;;;;;;;;4987450;28;20122;-69
2022/04/01 12:02:36;;;;;;;5.07;1.65;;;;;;;;;;4977878;28;20573;-70
2022/04/01 12:05:02;;;;;;;6.60;1.98;;;;;;;;;;4983237;28;20039;-69
2022/04/01 12:10:26;;;;;;;3.53;1.60;;;;;;;;;;4972934;28;20045;-70
2022/04/01 12:12:55;;;;;;;3.08;1.40;;;;;;;;;;4997336;28;20074;-69
2022/04/01 12:15:31;;;;;;;4.78;1.83;;;;;;;;;;4973515;28;20050;-69
2022/04/01 12:17:58;;;;;;;2.92;1.60;;;;;;;;;;4973508;28;20035;-67
2022/04/01 12:20:26;;;;;;;2.78;1.73;;;;;;;;;;4973121;28;20070;-68
2022/04/01 12:22:53;;;;;;;2.75;1.58;;;;;;;;;;4973680;28;20453;-68
2022/04/01 12:25:19;;;;;;;3.28;1.40;;;;;;;;;;5001752;28;20058;-68
2022/04/01 12:27:52;;;;;;;3.20;1.52;;;;;;;;;;4989195;28;21272;-68
2022/04/01 12:30:28;;;;;;;3.28;1.50;;;;;;;;;;4988547;28;20378;-68
2022/04/01 12:32:59;;;;;;;3.40;1.60;;;;;;;;;;4973209;28;20047;-69
2022/04/01 12:35:25;;;;;;;4.68;1.85;;;;;;;;;;4972714;28;20371;-69
2022/04/01 12:38:11;;;;;;;3.35;1.60;;;;;;;;;;4992058;28;20501;-69
2022/04/01 12:40:46;;;;;;;3.45;1.70;;;;;;;;;;4982709;28;20050;-70
2022/04/01 12:43:31;;;;;;;3.88;1.45;;;;;;;;;;4977511;28;20046;-69
2022/04/01 12:46:08;;;;;;;8.52;1.88;;;;;;;;;;4977400;28;20080;-68
2022/04/01 12:48:46;;;;;;;4.35;1.90;;;;;;;;;;4980764;28;20108;-67
2022/04/01 12:51:31;;;;;;;3.95;1.50;;;;;;;;;;4992688;28;20088;-67
2022/04/01 12:53:57;;;;;;;2.38;1.85;;;;;;;;;;4988611;28;20046;-66
2022/04/01 12:56:25;;;;;;;4.07;2.05;;;;;;;;;;5003010;28;20090;-68
2022/04/01 12:58:52;;;;;;;4.80;2.00;;;;;;;;;;5008659;28;20046;-69
2022/04/01 13:01:25;;;;;;;4.93;1.83;;;;;;;;;;4979202;28;20050;-67
2022/04/01 13:03:51;;;;;;;4.90;1.77;;;;;;;;;;4972124;28;20093;-67
2022/04/01 13:06:18;;;;;;;5.97;1.73;;;;;;;;;;4972820;28;20123;-68
2022/04/01 13:08:44;;;;;;;3.47;1.90;;;;;;;;;;4980753;28;20485;-68
2022/04/01 13:11:14;;;;;;;4.30;2.15;;;;;;;;;;4988923;28;20050;-70
2022/04/01 13:13:40;;;;;;;2.38;1.70;;;;;;;;;;4973943;28;20498;-70
2022/04/01 13:16:07;;;;;;;3.03;1.67;;;;;;;;;;4971234;28;20058;-68
2022/04/01 13:18:33;;;;;;;3.85;2.00;;;;;;;;;;4971777;28;20481;-68
2022/04/01 13:20:59;;;;;;;6.40;1.63;;;;;;;;;;4972569;28;20038;-69
2022/04/01 13:23:28;;;;;;;2.70;1.73;;;;;;;;;;4972534;28;20042;-69
2022/04/01 13:25:54;;;;;;;5.00;1.88;;;;;;;;;;4976416;28;20073;-68
2022/04/01 13:28:20;;;;;;;3.53;2.03;;;;;;;;;;4984365;28;20097;-68
2022/04/01 13:30:46;;;;;;;3.92;1.80;;;;;;;;;;4972545;28;20042;-67
2022/04/01 13:33:15;;;;;;;3.72;1.98;;;;;;;;;;4971783;28;20038;-67
2022/04/01 13:35:41;;;;;;;5.90;2.15;;;;;;;;;;4972378;28;20541;-68
2022/04/01 13:38:08;;;;;;;3.15;1.80;;;;;;;;;;4991603;28;20088;-69
2022/04/01 13:40:34;;;;;;;4.95;1.92;;;;;;;;;;4983824;28;20042;-68
2022/04/01 13:43:01;;;;;;;3.92;1.42;;;;;;;;;;4972472;28;20418;-68
2022/04/01 13:45:29;;;;;;;5.15;2.05;;;;;;;;;;4971083;28;20528;-67
2022/04/01 13:47:56;;;;;;;6.15;1.90;;;;;;;;;;4971649;28;20105;-68
2022/04/01 13:50:22;;;;;;;4.85;1.67;;;;;;;;;;4970967;28;20050;-68
2022/04/01 13:52:48;;;;;;;4.63;1.75;;;;;;;;;;4992374;28;20441;-68
2022/04/01 13:55:14;;;;;;;3.80;1.90;;;;;;;;;;4982546;28;20049;-69
2022/04/01 13:57:40;;;;;;;3.25;1.50;;;;;;;;;;4981657;28;20129;-66
2022/04/01 14:00:08;;;;;;;3.25;1.70;;;;;;;;;;4986802;28;20047;-68
2022/04/01 14:02:35;;;;;;;2.88;1.65;;;;;;;;;;4970420;28;20135;-68
2022/04/01 14:05:02;;;;;;;5.03;1.38;;;;;;;;;;4972071;28;20098;-67
2022/04/01 14:07:28;;;;;;;4.68;2.10;;;;;;;;;;4972136;28;20051;-69
2022/04/01 14:09:54;;;;;;;5.47;1.70;;;;;;;;;;4972868;28;20046;-66
2022/04/01 14:12:20;;;;;;;4.95;1.48;;;;;;;;;;4972349;28;20049;-65
2022/04/01 14:14:46;;;;;;;2.92;1.40;;;;;;;;;;4972327;28;20038;-65
2022/04/01 14:17:12;;;;;;;3.33;1.67;;;;;;;;;;4970913;28;20050;-65
2022/04/01 14:19:38;;;;;;;5.60;2.00;;;;;;;;;;4971915;28;20380;-65
2022/04/01 14:22:04;;;;;;;4.57;1.60;;;;;;;;;;4971729;28;20114;-66
2022/04/01 14:24:30;;;;;;;4.15;1.42;;;;;;;;;;4988046;28;20058;-67
2022/04/01 14:26:58;;;;;;;4.55;1.70;;;;;;;;;;4985583;28;20093;-66
2022/04/01 14:32:08;;;;;;;4.53;1.58;;;;;;;;;;4994245;28;20096;-66
2022/04/01 14:34:36;;;;;;;4.30;1.80;;;;;;;;;;4995029;28;20392;-66
2022/04/01 14:37:03;;;;;;;7.28;1.80;;;;;;;;;;4994735;28;20484;-66
2022/04/01 14:39:29;;;;;;;2.25;1.60;;;;;;;;;;4994102;28;20047;-66
2022/04/01 14:41:56;;;;;;;4.10;1.55;;;;;;;;;;4994785;28;20554;-66
2022/04/01 14:44:22;;;;;;;3.08;1.50;;;;;;;;;;4993505;28;20515;-66
2022/04/01 14:46:49;;;;;;;4.90;1.60;;;;;;;;;;4994462;28;20467;-66
2022/04/01 14:49:16;;;;;;;4.78;2.13;;;;;;;;;;4995055;28;20045;-66
2022/04/01 14:51:43;;;;;;;4.38;1.40;;;;;;;;;;4995150;28;20049;-66
2022/04/01 14:54:09;;;;;;;3.13;1.80;;;;;;;;;;4994619;28;20730;-66
2022/04/01 14:56:35;;;;;;;5.53;1.58;;;;;;;;;;4994784;28;20076;-66
2022/04/01 14:59:01;;;;;;;4.32;1.42;;;;;;;;;;4994959;28;20730;-66
2022/04/01 15:01:27;;;;;;;7.05;2.03;;;;;;;;;;4994080;28;20038;-66
2022/04/01 15:03:53;;;;;;;2.70;1.52;;;;;;;;;;4994879;28;20130;-66
2022/04/01 15:06:21;;;;;;;7.70;1.70;;;;;;;;;;4994748;28;20539;-66
2022/04/01 15:08:47;;;;;;;2.95;1.38;;;;;;;;;;4994006;28;20038;-66